sensor_id;sensor_type;location;lat;lon;timestamp;temperature;humidity
71514;DHT22;59335;46.652;21.272;2024-03-02T00:02:24;23.66;41.20
71514;DHT22;59335;46.652;21.272;2024-03-02T00:05:28;23.66;41.15
71514;DHT22;59335;46.652;21.272;2024-03-02T00:08:31;23.63;41.22
71514;DHT22;59335;46.652;21.272;2024-03-02T00:11:35;23.63;41.16
71514;DHT22;59335;46.652;21.272;2024-03-02T00:14:38;23.64;41.16
71514;DHT22;59335;46.652;21.272;2024-03-02T00:17:41;23.63;41.15
71514;DHT22;59335;46.652;21.272;2024-03-02T00:20:44;23.64;41.09
71514;DHT22;59335;46.652;21.272;2024-03-02T00:23:48;23.64;41.09
71514;DHT22;59335;46.652;21.272;2024-03-02T00:26:52;23.63;41.09
71514;DHT22;59335;46.652;21.272;2024-03-02T00:29:54;23.60;41.03
71514;DHT22;59335;46.652;21.272;2024-03-02T00:33:00;23.63;41.06
71514;DHT22;59335;46.652;21.272;2024-03-02T00:36:03;23.64;41.02
71514;DHT22;59335;46.652;21.272;2024-03-02T00:39:06;23.60;40.99
71514;DHT22;59335;46.652;21.272;2024-03-02T00:42:11;23.63;40.99
71514;DHT22;59335;46.652;21.272;2024-03-02T00:45:14;23.64;40.96
71514;DHT22;59335;46.652;21.272;2024-03-02T00:48:18;23.63;40.98
71514;DHT22;59335;46.652;21.272;2024-03-02T00:51:25;23.60;40.93
71514;DHT22;59335;46.652;21.272;2024-03-02T00:54:28;23.63;40.87
71514;DHT22;59335;46.652;21.272;2024-03-02T00:57:34;23.61;40.89
71514;DHT22;59335;46.652;21.272;2024-03-02T01:00:37;23.60;40.88
71514;DHT22;59335;46.652;21.272;2024-03-02T01:03:40;23.63;40.88
71514;DHT22;59335;46.652;21.272;2024-03-02T01:06:44;23.61;40.87
71514;DHT22;59335;46.652;21.272;2024-03-02T01:09:47;23.64;40.78
71514;DHT22;59335;46.652;21.272;2024-03-02T01:12:50;23.63;40.79
71514;DHT22;59335;46.652;21.272;2024-03-02T01:15:52;23.63;40.77
71514;DHT22;59335;46.652;21.272;2024-03-02T01:18:55;23.63;40.78
71514;DHT22;59335;46.652;21.272;2024-03-02T01:21:58;23.63;40.74
71514;DHT22;59335;46.652;21.272;2024-03-02T01:25:02;23.63;40.74
71514;DHT22;59335;46.652;21.272;2024-03-02T01:28:05;23.61;40.67
71514;DHT22;59335;46.652;21.272;2024-03-02T01:31:08;23.61;40.71
71514;DHT22;59335;46.652;21.272;2024-03-02T01:34:11;23.61;40.64
71514;DHT22;59335;46.652;21.272;2024-03-02T01:37:15;23.61;40.68
71514;DHT22;59335;46.652;21.272;2024-03-02T01:40:18;23.61;40.67
71514;DHT22;59335;46.652;21.272;2024-03-02T01:43:21;23.61;40.64
71514;DHT22;59335;46.652;21.272;2024-03-02T01:46:23;23.63;40.57
71514;DHT22;59335;46.652;21.272;2024-03-02T01:49:26;23.61;40.58
71514;DHT22;59335;46.652;21.272;2024-03-02T01:52:29;23.61;40.58
71514;DHT22;59335;46.652;21.272;2024-03-02T01:55:32;23.60;40.55
71514;DHT22;59335;46.652;21.272;2024-03-02T01:58:37;23.60;40.53
71514;DHT22;59335;46.652;21.272;2024-03-02T02:01:40;23.63;40.51
71514;DHT22;59335;46.652;21.272;2024-03-02T02:04:43;23.60;40.51
71514;DHT22;59335;46.652;21.272;2024-03-02T02:07:46;23.61;40.53
71514;DHT22;59335;46.652;21.272;2024-03-02T02:10:49;23.61;40.51
71514;DHT22;59335;46.652;21.272;2024-03-02T02:13:52;23.60;40.49
71514;DHT22;59335;46.652;21.272;2024-03-02T02:16:54;23.63;40.53
71514;DHT22;59335;46.652;21.272;2024-03-02T02:19:57;23.60;40.51
71514;DHT22;59335;46.652;21.272;2024-03-02T02:23:01;23.61;40.51
71514;DHT22;59335;46.652;21.272;2024-03-02T02:26:04;23.63;40.54
71514;DHT22;59335;46.652;21.272;2024-03-02T02:29:07;23.63;40.53
71514;DHT22;59335;46.652;21.272;2024-03-02T02:32:09;23.63;40.51
71514;DHT22;59335;46.652;21.272;2024-03-02T02:35:13;23.63;40.53
71514;DHT22;59335;46.652;21.272;2024-03-02T02:38:16;23.60;40.58
71514;DHT22;59335;46.652;21.272;2024-03-02T02:41:19;23.63;40.54
71514;DHT22;59335;46.652;21.272;2024-03-02T02:44:22;23.61;40.59
71514;DHT22;59335;46.652;21.272;2024-03-02T02:47:25;23.63;40.57
71514;DHT22;59335;46.652;21.272;2024-03-02T02:50:29;23.61;40.54
71514;DHT22;59335;46.652;21.272;2024-03-02T02:53:32;23.60;40.50
71514;DHT22;59335;46.652;21.272;2024-03-02T02:56:35;23.61;40.54
71514;DHT22;59335;46.652;21.272;2024-03-02T02:59:38;23.61;40.56
71514;DHT22;59335;46.652;21.272;2024-03-02T03:02:41;23.61;40.57
71514;DHT22;59335;46.652;21.272;2024-03-02T03:05:45;23.63;40.54
71514;DHT22;59335;46.652;21.272;2024-03-02T03:08:48;23.60;40.53
71514;DHT22;59335;46.652;21.272;2024-03-02T03:11:51;23.61;40.51
71514;DHT22;59335;46.652;21.272;2024-03-02T03:14:54;23.63;40.56
71514;DHT22;59335;46.652;21.272;2024-03-02T03:17:57;23.63;40.55
71514;DHT22;59335;46.652;21.272;2024-03-02T03:21:00;23.61;40.54
71514;DHT22;59335;46.652;21.272;2024-03-02T03:24:04;23.60;40.58
71514;DHT22;59335;46.652;21.272;2024-03-02T03:27:07;23.60;40.54
71514;DHT22;59335;46.652;21.272;2024-03-02T03:30:10;23.61;40.49
71514;DHT22;59335;46.652;21.272;2024-03-02T03:33:13;23.63;40.56
71514;DHT22;59335;46.652;21.272;2024-03-02T03:36:16;23.60;40.43
71514;DHT22;59335;46.652;21.272;2024-03-02T03:39:19;23.57;40.46
71514;DHT22;59335;46.652;21.272;2024-03-02T03:42:22;23.60;40.47
71514;DHT22;59335;46.652;21.272;2024-03-02T03:45:24;23.61;40.43
71514;DHT22;59335;46.652;21.272;2024-03-02T03:48:29;23.63;40.46
71514;DHT22;59335;46.652;21.272;2024-03-02T03:51:33;23.61;40.40
71514;DHT22;59335;46.652;21.272;2024-03-02T03:54:36;23.59;40.37
71514;DHT22;59335;46.652;21.272;2024-03-02T03:57:41;23.61;40.41
71514;DHT22;59335;46.652;21.272;2024-03-02T04:00:44;23.57;40.41
71514;DHT22;59335;46.652;21.272;2024-03-02T04:03:47;23.60;40.39
71514;DHT22;59335;46.652;21.272;2024-03-02T04:06:50;23.59;40.39
71514;DHT22;59335;46.652;21.272;2024-03-02T04:09:53;23.59;40.28
71514;DHT22;59335;46.652;21.272;2024-03-02T04:12:56;23.60;40.29
71514;DHT22;59335;46.652;21.272;2024-03-02T04:16:00;23.60;40.39
71514;DHT22;59335;46.652;21.272;2024-03-02T04:19:03;23.60;40.40
71514;DHT22;59335;46.652;21.272;2024-03-02T04:22:06;23.57;40.31
71514;DHT22;59335;46.652;21.272;2024-03-02T04:25:22;23.61;40.37
71514;DHT22;59335;46.652;21.272;2024-03-02T04:28:25;23.63;40.34
71514;DHT22;59335;46.652;21.272;2024-03-02T04:31:28;23.59;40.40
71514;DHT22;59335;46.652;21.272;2024-03-02T04:34:31;23.57;40.36
71514;DHT22;59335;46.652;21.272;2024-03-02T04:37:34;23.59;40.34
71514;DHT22;59335;46.652;21.272;2024-03-02T04:40:37;23.59;40.34
71514;DHT22;59335;46.652;21.272;2024-03-02T04:43:40;23.57;40.34
71514;DHT22;59335;46.652;21.272;2024-03-02T04:46:43;23.56;40.33
71514;DHT22;59335;46.652;21.272;2024-03-02T04:49:45;23.59;40.34
71514;DHT22;59335;46.652;21.272;2024-03-02T04:52:50;23.59;40.33
71514;DHT22;59335;46.652;21.272;2024-03-02T04:55:53;23.59;40.30
71514;DHT22;59335;46.652;21.272;2024-03-02T04:58:56;23.57;40.34
71514;DHT22;59335;46.652;21.272;2024-03-02T05:01:59;23.57;40.28
71514;DHT22;59335;46.652;21.272;2024-03-02T05:05:02;23.57;40.33
71514;DHT22;59335;46.652;21.272;2024-03-02T05:08:06;23.57;40.31
71514;DHT22;59335;46.652;21.272;2024-03-02T05:11:09;23.56;40.31
71514;DHT22;59335;46.652;21.272;2024-03-02T05:14:30;23.61;40.28
71514;DHT22;59335;46.652;21.272;2024-03-02T05:17:33;23.56;40.37
71514;DHT22;59335;46.652;21.272;2024-03-02T05:20:36;23.57;40.37
71514;DHT22;59335;46.652;21.272;2024-03-02T05:23:39;23.57;40.33
71514;DHT22;59335;46.652;21.272;2024-03-02T05:26:42;23.59;40.37
71514;DHT22;59335;46.652;21.272;2024-03-02T05:29:45;23.57;40.35
71514;DHT22;59335;46.652;21.272;2024-03-02T05:32:48;23.60;40.37
71514;DHT22;59335;46.652;21.272;2024-03-02T05:35:51;23.56;40.37
71514;DHT22;59335;46.652;21.272;2024-03-02T05:38:54;23.56;40.32
71514;DHT22;59335;46.652;21.272;2024-03-02T05:41:57;23.56;40.34
71514;DHT22;59335;46.652;21.272;2024-03-02T05:44:59;23.57;40.33
71514;DHT22;59335;46.652;21.272;2024-03-02T05:48:02;23.57;40.31
71514;DHT22;59335;46.652;21.272;2024-03-02T05:51:06;23.59;40.34
71514;DHT22;59335;46.652;21.272;2024-03-02T05:54:09;23.59;40.38
71514;DHT22;59335;46.652;21.272;2024-03-02T05:57:14;23.57;40.36
71514;DHT22;59335;46.652;21.272;2024-03-02T06:00:28;23.56;40.32
71514;DHT22;59335;46.652;21.272;2024-03-02T06:03:33;23.56;40.35
71514;DHT22;59335;46.652;21.272;2024-03-02T06:06:37;23.59;40.38
71514;DHT22;59335;46.652;21.272;2024-03-02T06:09:40;23.57;40.33
71514;DHT22;59335;46.652;21.272;2024-03-02T06:12:43;23.56;40.34
71514;DHT22;59335;46.652;21.272;2024-03-02T06:15:46;23.57;40.34
71514;DHT22;59335;46.652;21.272;2024-03-02T06:18:49;23.57;40.33
71514;DHT22;59335;46.652;21.272;2024-03-02T06:21:52;23.56;40.33
71514;DHT22;59335;46.652;21.272;2024-03-02T06:24:55;23.57;40.33
71514;DHT22;59335;46.652;21.272;2024-03-02T06:27:58;23.56;40.31
71514;DHT22;59335;46.652;21.272;2024-03-02T06:31:02;23.56;40.33
71514;DHT22;59335;46.652;21.272;2024-03-02T06:34:05;23.56;40.31
71514;DHT22;59335;46.652;21.272;2024-03-02T06:37:08;23.56;40.35
71514;DHT22;59335;46.652;21.272;2024-03-02T06:40:10;23.57;40.34
71514;DHT22;59335;46.652;21.272;2024-03-02T06:43:13;23.60;40.35
71514;DHT22;59335;46.652;21.272;2024-03-02T06:46:17;23.59;40.35
71514;DHT22;59335;46.652;21.272;2024-03-02T06:49:20;23.59;40.35
71514;DHT22;59335;46.652;21.272;2024-03-02T06:52:23;23.59;40.39
71514;DHT22;59335;46.652;21.272;2024-03-02T06:55:26;23.57;40.35
71514;DHT22;59335;46.652;21.272;2024-03-02T06:58:29;23.57;40.35
71514;DHT22;59335;46.652;21.272;2024-03-02T07:01:32;23.57;40.35
71514;DHT22;59335;46.652;21.272;2024-03-02T07:04:34;23.57;40.35
71514;DHT22;59335;46.652;21.272;2024-03-02T07:07:37;23.60;40.36
71514;DHT22;59335;46.652;21.272;2024-03-02T07:10:40;23.57;40.37
71514;DHT22;59335;46.652;21.272;2024-03-02T07:13:43;23.59;40.34
71514;DHT22;59335;46.652;21.272;2024-03-02T07:16:46;23.59;40.40
71514;DHT22;59335;46.652;21.272;2024-03-02T07:19:49;23.60;40.36
71514;DHT22;59335;46.652;21.272;2024-03-02T07:22:52;23.60;40.38
71514;DHT22;59335;46.652;21.272;2024-03-02T07:25:54;23.60;40.34
71514;DHT22;59335;46.652;21.272;2024-03-02T07:29:01;23.61;40.33
71514;DHT22;59335;46.652;21.272;2024-03-02T07:32:05;23.60;40.40
71514;DHT22;59335;46.652;21.272;2024-03-02T07:35:08;23.61;40.37
71514;DHT22;59335;46.652;21.272;2024-03-02T07:38:11;23.64;40.34
71514;DHT22;59335;46.652;21.272;2024-03-02T07:41:15;23.60;40.41
71514;DHT22;59335;46.652;21.272;2024-03-02T07:44:18;23.63;40.43
71514;DHT22;59335;46.652;21.272;2024-03-02T07:47:21;23.64;40.39
71514;DHT22;59335;46.652;21.272;2024-03-02T07:50:24;23.61;40.40
71514;DHT22;59335;46.652;21.272;2024-03-02T07:53:27;23.64;40.39
71514;DHT22;59335;46.652;21.272;2024-03-02T07:56:32;23.64;40.38
71514;DHT22;59335;46.652;21.272;2024-03-02T07:59:35;23.63;40.45
71514;DHT22;59335;46.652;21.272;2024-03-02T08:02:39;23.61;40.43
71514;DHT22;59335;46.652;21.272;2024-03-02T08:05:44;23.63;40.43
71514;DHT22;59335;46.652;21.272;2024-03-02T08:08:47;23.66;40.45
71514;DHT22;59335;46.652;21.272;2024-03-02T08:11:50;23.64;40.44
71514;DHT22;59335;46.652;21.272;2024-03-02T08:14:52;23.63;40.44
71514;DHT22;59335;46.652;21.272;2024-03-02T08:17:55;23.63;40.47
71514;DHT22;59335;46.652;21.272;2024-03-02T08:20:59;23.63;40.47
71514;DHT22;59335;46.652;21.272;2024-03-02T08:24:02;23.64;40.46
71514;DHT22;59335;46.652;21.272;2024-03-02T08:27:08;23.66;40.50
71514;DHT22;59335;46.652;21.272;2024-03-02T08:30:12;23.66;40.46
71514;DHT22;59335;46.652;21.272;2024-03-02T08:33:15;23.64;40.50
71514;DHT22;59335;46.652;21.272;2024-03-02T08:36:18;23.66;40.50
71514;DHT22;59335;46.652;21.272;2024-03-02T08:39:21;23.66;40.46
71514;DHT22;59335;46.652;21.272;2024-03-02T08:42:24;23.69;40.50
71514;DHT22;59335;46.652;21.272;2024-03-02T08:45:27;23.67;40.52
71514;DHT22;59335;46.652;21.272;2024-03-02T08:48:30;23.67;40.49
71514;DHT22;59335;46.652;21.272;2024-03-02T08:51:33;23.66;40.55
71514;DHT22;59335;46.652;21.272;2024-03-02T08:54:36;23.70;40.56
71514;DHT22;59335;46.652;21.272;2024-03-02T08:57:40;23.70;40.53
71514;DHT22;59335;46.652;21.272;2024-03-02T09:00:44;23.70;40.51
71514;DHT22;59335;46.652;21.272;2024-03-02T09:03:49;23.70;40.57
71514;DHT22;59335;46.652;21.272;2024-03-02T09:06:54;23.70;40.57
71514;DHT22;59335;46.652;21.272;2024-03-02T09:09:57;23.71;40.75
71514;DHT22;59335;46.652;21.272;2024-03-02T09:13:00;23.71;40.81
71514;DHT22;59335;46.652;21.272;2024-03-02T09:16:13;23.73;40.81
71514;DHT22;59335;46.652;21.272;2024-03-02T09:19:16;23.74;41.00
71514;DHT22;59335;46.652;21.272;2024-03-02T09:22:21;23.75;41.26
71514;DHT22;59335;46.652;21.272;2024-03-02T09:25:24;23.80;41.30
71514;DHT22;59335;46.652;21.272;2024-03-02T09:28:28;23.80;41.47
71514;DHT22;59335;46.652;21.272;2024-03-02T09:31:30;23.80;41.56
71514;DHT22;59335;46.652;21.272;2024-03-02T09:34:33;23.80;41.56
71514;DHT22;59335;46.652;21.272;2024-03-02T09:37:36;23.81;41.65
71514;DHT22;59335;46.652;21.272;2024-03-02T09:40:41;23.85;41.67
71514;DHT22;59335;46.652;21.272;2024-03-02T09:43:44;23.82;41.63
71514;DHT22;59335;46.652;21.272;2024-03-02T09:46:51;23.82;41.66
71514;DHT22;59335;46.652;21.272;2024-03-02T09:49:54;23.84;41.60
71514;DHT22;59335;46.652;21.272;2024-03-02T09:52:58;23.84;41.56
71514;DHT22;59335;46.652;21.272;2024-03-02T09:56:01;23.84;41.65
71514;DHT22;59335;46.652;21.272;2024-03-02T09:59:04;23.84;41.73
71514;DHT22;59335;46.652;21.272;2024-03-02T10:02:07;23.84;41.67
71514;DHT22;59335;46.652;21.272;2024-03-02T10:05:10;23.85;41.69
71514;DHT22;59335;46.652;21.272;2024-03-02T10:08:15;23.85;41.71
71514;DHT22;59335;46.652;21.272;2024-03-02T10:11:32;23.82;41.68
71514;DHT22;59335;46.652;21.272;2024-03-02T10:14:35;23.84;41.67
71514;DHT22;59335;46.652;21.272;2024-03-02T10:17:38;23.81;41.72
71514;DHT22;59335;46.652;21.272;2024-03-02T10:20:42;23.82;41.67
71514;DHT22;59335;46.652;21.272;2024-03-02T10:23:44;23.82;41.71
71514;DHT22;59335;46.652;21.272;2024-03-02T10:26:48;23.84;41.73
71514;DHT22;59335;46.652;21.272;2024-03-02T10:29:51;23.82;41.79
71514;DHT22;59335;46.652;21.272;2024-03-02T10:32:55;23.87;41.79
71514;DHT22;59335;46.652;21.272;2024-03-02T10:35:58;23.85;41.80
71514;DHT22;59335;46.652;21.272;2024-03-02T10:39:02;23.87;41.75
71514;DHT22;59335;46.652;21.272;2024-03-02T10:42:07;23.87;41.81
71514;DHT22;59335;46.652;21.272;2024-03-02T10:45:10;23.90;41.76
71514;DHT22;59335;46.652;21.272;2024-03-02T10:48:14;23.85;41.79
71514;DHT22;59335;46.652;21.272;2024-03-02T10:51:17;23.87;41.76
71514;DHT22;59335;46.652;21.272;2024-03-02T10:54:20;23.85;41.80
71514;DHT22;59335;46.652;21.272;2024-03-02T10:57:34;23.87;41.76
71514;DHT22;59335;46.652;21.272;2024-03-02T11:00:41;23.87;41.72
71514;DHT22;59335;46.652;21.272;2024-03-02T11:03:44;23.87;41.79
71514;DHT22;59335;46.652;21.272;2024-03-02T11:06:51;23.91;41.81
71514;DHT22;59335;46.652;21.272;2024-03-02T11:09:57;23.90;41.78
71514;DHT22;59335;46.652;21.272;2024-03-02T11:13:09;23.87;41.76
71514;DHT22;59335;46.652;21.272;2024-03-02T11:16:41;23.90;41.71
71514;DHT22;59335;46.652;21.272;2024-03-02T11:19:44;23.91;41.69
71514;DHT22;59335;46.652;21.272;2024-03-02T11:22:48;23.90;41.69
71514;DHT22;59335;46.652;21.272;2024-03-02T11:25:51;23.90;41.72
71514;DHT22;59335;46.652;21.272;2024-03-02T11:28:54;23.88;41.71
71514;DHT22;59335;46.652;21.272;2024-03-02T11:31:58;23.87;41.72
71514;DHT22;59335;46.652;21.272;2024-03-02T11:35:06;23.87;41.71
71514;DHT22;59335;46.652;21.272;2024-03-02T11:38:09;23.90;41.67
71514;DHT22;59335;46.652;21.272;2024-03-02T11:41:12;23.93;41.66
71514;DHT22;59335;46.652;21.272;2024-03-02T11:44:17;23.94;41.64
71514;DHT22;59335;46.652;21.272;2024-03-02T11:47:20;23.93;41.63
71514;DHT22;59335;46.652;21.272;2024-03-02T11:50:42;23.90;41.56
71514;DHT22;59335;46.652;21.272;2024-03-02T11:53:46;23.91;41.44
71514;DHT22;59335;46.652;21.272;2024-03-02T11:56:49;23.93;41.43
71514;DHT22;59335;46.652;21.272;2024-03-02T11:59:52;23.93;41.35
71514;DHT22;59335;46.652;21.272;2024-03-02T12:03:05;23.91;41.32
71514;DHT22;59335;46.652;21.272;2024-03-02T12:06:09;23.91;41.23
71514;DHT22;59335;46.652;21.272;2024-03-02T12:09:12;23.93;41.22
71514;DHT22;59335;46.652;21.272;2024-03-02T12:12:17;23.94;41.18
71514;DHT22;59335;46.652;21.272;2024-03-02T12:15:25;23.93;41.14
71514;DHT22;59335;46.652;21.272;2024-03-02T12:18:29;23.93;41.15
71514;DHT22;59335;46.652;21.272;2024-03-02T12:21:32;23.93;41.08
71514;DHT22;59335;46.652;21.272;2024-03-02T12:24:35;23.91;41.10
71514;DHT22;59335;46.652;21.272;2024-03-02T12:27:40;23.93;41.05
71514;DHT22;59335;46.652;21.272;2024-03-02T12:30:43;23.93;41.07
71514;DHT22;59335;46.652;21.272;2024-03-02T12:33:46;23.93;41.05
71514;DHT22;59335;46.652;21.272;2024-03-02T12:36:49;23.96;41.01
71514;DHT22;59335;46.652;21.272;2024-03-02T12:39:55;23.93;40.97
71514;DHT22;59335;46.652;21.272;2024-03-02T12:42:58;23.96;40.96
71514;DHT22;59335;46.652;21.272;2024-03-02T12:46:01;23.93;40.98
71514;DHT22;59335;46.652;21.272;2024-03-02T12:49:08;23.93;40.91
71514;DHT22;59335;46.652;21.272;2024-03-02T12:52:13;23.96;40.90
71514;DHT22;59335;46.652;21.272;2024-03-02T12:55:16;23.93;40.87
71514;DHT22;59335;46.652;21.272;2024-03-02T12:58:22;23.93;40.89
71514;DHT22;59335;46.652;21.272;2024-03-02T13:01:25;23.91;40.87
71514;DHT22;59335;46.652;21.272;2024-03-02T13:04:31;23.90;40.90
71514;DHT22;59335;46.652;21.272;2024-03-02T13:07:35;23.91;40.86
71514;DHT22;59335;46.652;21.272;2024-03-02T13:10:38;23.93;40.87
71514;DHT22;59335;46.652;21.272;2024-03-02T13:13:41;23.94;40.80
71514;DHT22;59335;46.652;21.272;2024-03-02T13:16:44;23.94;40.78
71514;DHT22;59335;46.652;21.272;2024-03-02T13:19:57;23.94;40.77
71514;DHT22;59335;46.652;21.272;2024-03-02T13:23:01;23.97;40.81
71514;DHT22;59335;46.652;21.272;2024-03-02T13:26:04;23.96;40.74
71514;DHT22;59335;46.652;21.272;2024-03-02T13:29:07;23.94;40.76
71514;DHT22;59335;46.652;21.272;2024-03-02T13:32:10;23.96;40.78
71514;DHT22;59335;46.652;21.272;2024-03-02T13:35:14;23.93;40.77
71514;DHT22;59335;46.652;21.272;2024-03-02T13:38:20;23.93;40.75
71514;DHT22;59335;46.652;21.272;2024-03-02T13:41:23;23.96;40.75
71514;DHT22;59335;46.652;21.272;2024-03-02T13:44:26;23.94;40.84
71514;DHT22;59335;46.652;21.272;2024-03-02T13:47:29;23.96;40.79
71514;DHT22;59335;46.652;21.272;2024-03-02T13:50:32;23.94;40.86
71514;DHT22;59335;46.652;21.272;2024-03-02T13:53:35;23.97;40.90
71514;DHT22;59335;46.652;21.272;2024-03-02T13:56:39;23.96;40.92
71514;DHT22;59335;46.652;21.272;2024-03-02T13:59:43;23.94;41.00
71514;DHT22;59335;46.652;21.272;2024-03-02T14:02:46;23.97;40.97
71514;DHT22;59335;46.652;21.272;2024-03-02T14:05:49;23.94;41.00
71514;DHT22;59335;46.652;21.272;2024-03-02T14:08:53;23.96;41.01
71514;DHT22;59335;46.652;21.272;2024-03-02T14:11:56;23.96;41.00
71514;DHT22;59335;46.652;21.272;2024-03-02T14:15:00;23.94;41.01
71514;DHT22;59335;46.652;21.272;2024-03-02T14:18:05;23.94;40.97
71514;DHT22;59335;46.652;21.272;2024-03-02T14:21:08;23.93;40.96
71514;DHT22;59335;46.652;21.272;2024-03-02T14:24:11;23.94;40.98
71514;DHT22;59335;46.652;21.272;2024-03-02T14:27:15;23.94;41.11
71514;DHT22;59335;46.652;21.272;2024-03-02T14:30:34;23.94;41.09
71514;DHT22;59335;46.652;21.272;2024-03-02T14:33:37;23.93;41.11
71514;DHT22;59335;46.652;21.272;2024-03-02T14:36:41;23.94;41.13
71514;DHT22;59335;46.652;21.272;2024-03-02T14:39:46;23.93;41.19
71514;DHT22;59335;46.652;21.272;2024-03-02T14:42:50;23.93;41.21
71514;DHT22;59335;46.652;21.272;2024-03-02T14:46:01;23.93;41.21
71514;DHT22;59335;46.652;21.272;2024-03-02T14:49:05;23.93;41.21
71514;DHT22;59335;46.652;21.272;2024-03-02T14:52:08;23.93;41.23
71514;DHT22;59335;46.652;21.272;2024-03-02T14:55:12;23.91;41.16
71514;DHT22;59335;46.652;21.272;2024-03-02T14:58:17;23.90;41.25
71514;DHT22;59335;46.652;21.272;2024-03-02T15:01:20;23.91;41.23
71514;DHT22;59335;46.652;21.272;2024-03-02T15:04:29;23.94;41.25
71514;DHT22;59335;46.652;21.272;2024-03-02T15:07:32;23.90;41.19
71514;DHT22;59335;46.652;21.272;2024-03-02T15:10:35;23.93;41.25
71514;DHT22;59335;46.652;21.272;2024-03-02T15:13:38;23.90;41.19
71514;DHT22;59335;46.652;21.272;2024-03-02T15:16:41;23.91;41.25
71514;DHT22;59335;46.652;21.272;2024-03-02T15:19:45;23.91;41.25
71514;DHT22;59335;46.652;21.272;2024-03-02T15:22:48;23.88;41.18
71514;DHT22;59335;46.652;21.272;2024-03-02T15:25:51;23.88;41.19
71514;DHT22;59335;46.652;21.272;2024-03-02T15:28:54;23.90;41.20
71514;DHT22;59335;46.652;21.272;2024-03-02T15:31:58;23.88;41.23
71514;DHT22;59335;46.652;21.272;2024-03-02T15:35:02;23.90;41.19
71514;DHT22;59335;46.652;21.272;2024-03-02T15:38:05;23.88;41.13
71514;DHT22;59335;46.652;21.272;2024-03-02T15:41:26;23.91;41.17
71514;DHT22;59335;46.652;21.272;2024-03-02T15:44:29;23.90;41.16
71514;DHT22;59335;46.652;21.272;2024-03-02T15:47:36;23.88;41.19
71514;DHT22;59335;46.652;21.272;2024-03-02T15:50:39;23.87;41.15
71514;DHT22;59335;46.652;21.272;2024-03-02T15:53:42;23.87;41.17
71514;DHT22;59335;46.652;21.272;2024-03-02T15:56:45;23.88;41.16
71514;DHT22;59335;46.652;21.272;2024-03-02T15:59:48;23.90;41.09
71514;DHT22;59335;46.652;21.272;2024-03-02T16:02:52;23.88;41.11
71514;DHT22;59335;46.652;21.272;2024-03-02T16:05:56;23.87;41.12
71514;DHT22;59335;46.652;21.272;2024-03-02T16:08:59;23.87;41.11
71514;DHT22;59335;46.652;21.272;2024-03-02T16:12:05;23.85;41.14
71514;DHT22;59335;46.652;21.272;2024-03-02T16:15:09;23.87;41.19
71514;DHT22;59335;46.652;21.272;2024-03-02T16:18:15;23.85;41.22
71514;DHT22;59335;46.652;21.272;2024-03-02T16:21:21;23.87;41.27
71514;DHT22;59335;46.652;21.272;2024-03-02T16:24:28;23.84;41.25
71514;DHT22;59335;46.652;21.272;2024-03-02T16:27:32;23.84;41.32
71514;DHT22;59335;46.652;21.272;2024-03-02T16:30:35;23.87;41.30
71514;DHT22;59335;46.652;21.272;2024-03-02T16:33:37;23.85;41.35
71514;DHT22;59335;46.652;21.272;2024-03-02T16:36:42;23.82;41.38
71514;DHT22;59335;46.652;21.272;2024-03-02T16:40:01;23.82;41.32
71514;DHT22;59335;46.652;21.272;2024-03-02T16:43:04;23.85;41.32
71514;DHT22;59335;46.652;21.272;2024-03-02T16:46:06;23.84;41.32
71514;DHT22;59335;46.652;21.272;2024-03-02T16:49:09;23.85;41.31
71514;DHT22;59335;46.652;21.272;2024-03-02T16:52:12;23.84;41.31
71514;DHT22;59335;46.652;21.272;2024-03-02T16:55:17;23.82;41.31
71514;DHT22;59335;46.652;21.272;2024-03-02T16:58:21;23.82;41.32
71514;DHT22;59335;46.652;21.272;2024-03-02T17:01:25;23.84;41.28
71514;DHT22;59335;46.652;21.272;2024-03-02T17:04:28;23.82;41.26
71514;DHT22;59335;46.652;21.272;2024-03-02T17:07:31;23.82;41.32
71514;DHT22;59335;46.652;21.272;2024-03-02T17:10:34;23.82;41.27
71514;DHT22;59335;46.652;21.272;2024-03-02T17:13:37;23.82;41.24
71514;DHT22;59335;46.652;21.272;2024-03-02T17:16:39;23.82;41.22
71514;DHT22;59335;46.652;21.272;2024-03-02T17:19:43;23.82;41.21
71514;DHT22;59335;46.652;21.272;2024-03-02T17:22:46;23.84;41.24
71514;DHT22;59335;46.652;21.272;2024-03-02T17:25:49;23.81;41.22
71514;DHT22;59335;46.652;21.272;2024-03-02T17:28:52;23.82;41.22
71514;DHT22;59335;46.652;21.272;2024-03-02T17:31:55;23.84;41.26
71514;DHT22;59335;46.652;21.272;2024-03-02T17:34:58;23.80;41.24
71514;DHT22;59335;46.652;21.272;2024-03-02T17:38:02;23.84;41.21
71514;DHT22;59335;46.652;21.272;2024-03-02T17:41:05;23.81;41.21
71514;DHT22;59335;46.652;21.272;2024-03-02T17:44:08;23.84;41.15
71514;DHT22;59335;46.652;21.272;2024-03-02T17:47:12;23.82;41.17
71514;DHT22;59335;46.652;21.272;2024-03-02T17:50:15;23.80;41.21
71514;DHT22;59335;46.652;21.272;2024-03-02T17:53:18;23.81;41.18
71514;DHT22;59335;46.652;21.272;2024-03-02T17:56:21;23.81;41.16
71514;DHT22;59335;46.652;21.272;2024-03-02T17:59:24;23.80;41.09
71514;DHT22;59335;46.652;21.272;2024-03-02T18:02:30;23.78;41.08
71514;DHT22;59335;46.652;21.272;2024-03-02T18:05:36;23.80;41.08
71514;DHT22;59335;46.652;21.272;2024-03-02T18:08:39;23.78;41.08
71514;DHT22;59335;46.652;21.272;2024-03-02T18:11:41;23.80;41.01
71514;DHT22;59335;46.652;21.272;2024-03-02T18:14:47;23.80;41.05
71514;DHT22;59335;46.652;21.272;2024-03-02T18:17:50;23.80;41.04
71514;DHT22;59335;46.652;21.272;2024-03-02T18:20:53;23.78;41.03
71514;DHT22;59335;46.652;21.272;2024-03-02T18:23:56;23.77;41.02
71514;DHT22;59335;46.652;21.272;2024-03-02T18:26:59;23.78;40.99
71514;DHT22;59335;46.652;21.272;2024-03-02T18:30:03;23.78;40.95
71514;DHT22;59335;46.652;21.272;2024-03-02T18:33:08;23.78;40.97
71514;DHT22;59335;46.652;21.272;2024-03-02T18:36:12;23.75;40.93
71514;DHT22;59335;46.652;21.272;2024-03-02T18:39:16;23.78;40.94
71514;DHT22;59335;46.652;21.272;2024-03-02T18:42:18;23.77;40.94
71514;DHT22;59335;46.652;21.272;2024-03-02T18:45:22;23.78;40.85
71514;DHT22;59335;46.652;21.272;2024-03-02T18:48:24;23.77;40.84
71514;DHT22;59335;46.652;21.272;2024-03-02T18:51:27;23.77;40.85
71514;DHT22;59335;46.652;21.272;2024-03-02T18:54:30;23.75;40.82
71514;DHT22;59335;46.652;21.272;2024-03-02T18:57:34;23.77;40.87
71514;DHT22;59335;46.652;21.272;2024-03-02T19:00:38;23.75;40.84
71514;DHT22;59335;46.652;21.272;2024-03-02T19:03:41;23.73;40.84